sensor_id;sensor_type;location;lat;lon;timestamp;P1;durP1;ratioP1;P2;durP2;ratioP2
13891;SDS011;7016;48.172;8.058;2023-09-12T00:01:23;14.27;;;7.72;;
13891;SDS011;7016;48.172;8.058;2023-09-12T00:03:49;15.10;;;7.78;;
13891;SDS011;7016;48.172;8.058;2023-09-12T00:06:14;13.52;;;7.60;;
13891;SDS011;7016;48.172;8.058;2023-09-12T00:08:40;15.63;;;7.55;;
13891;SDS011;7016;48.172;8.058;2023-09-12T00:11:07;12.23;;;7.60;;
13891;SDS011;7016;48.172;8.058;2023-09-12T00:13:37;15.57;;;8.18;;
13891;SDS011;7016;48.172;8.058;2023-09-12T00:16:06;16.13;;;8.27;;
13891;SDS011;7016;48.172;8.058;2023-09-12T00:18:36;19.40;;;7.85;;
13891;SDS011;7016;48.172;8.058;2023-09-12T00:21:02;15.18;;;8.00;;
13891;SDS011;7016;48.172;8.058;2023-09-12T00:23:28;11.52;;;7.95;;
13891;SDS011;7016;48.172;8.058;2023-09-12T00:25:54;16.45;;;8.00;;
13891;SDS011;7016;48.172;8.058;2023-09-12T00:28:20;15.70;;;8.00;;
13891;SDS011;7016;48.172;8.058;2023-09-12T00:30:46;15.38;;;8.05;;
13891;SDS011;7016;48.172;8.058;2023-09-12T00:33:11;16.73;;;7.97;;
13891;SDS011;7016;48.172;8.058;2023-09-12T00:35:37;13.73;;;7.38;;
13891;SDS011;7016;48.172;8.058;2023-09-12T00:38:03;14.65;;;8.10;;
13891;SDS011;7016;48.172;8.058;2023-09-12T00:40:29;12.25;;;7.45;;
13891;SDS011;7016;48.172;8.058;2023-09-12T00:42:55;13.30;;;8.10;;
13891;SDS011;7016;48.172;8.058;2023-09-12T00:45:20;16.90;;;8.57;;
13891;SDS011;7016;48.172;8.058;2023-09-12T00:47:46;12.57;;;7.60;;
13891;SDS011;7016;48.172;8.058;2023-09-12T00:50:12;15.65;;;7.63;;
13891;SDS011;7016;48.172;8.058;2023-09-12T00:52:39;12.15;;;7.63;;
13891;SDS011;7016;48.172;8.058;2023-09-12T00:55:07;16.20;;;8.05;;
13891;SDS011;7016;48.172;8.058;2023-09-12T00:57:33;11.93;;;7.68;;
13891;SDS011;7016;48.172;8.058;2023-09-12T01:00:01;17.17;;;8.55;;
13891;SDS011;7016;48.172;8.058;2023-09-12T01:02:37;12.95;;;8.13;;
13891;SDS011;7016;48.172;8.058;2023-09-12T01:05:05;12.10;;;8.40;;
13891;SDS011;7016;48.172;8.058;2023-09-12T01:07:32;11.98;;;8.13;;
13891;SDS011;7016;48.172;8.058;2023-09-12T01:09:59;15.85;;;7.88;;
13891;SDS011;7016;48.172;8.058;2023-09-12T01:12:25;16.80;;;8.50;;
13891;SDS011;7016;48.172;8.058;2023-09-12T01:14:50;14.25;;;8.40;;
13891;SDS011;7016;48.172;8.058;2023-09-12T01:17:16;16.63;;;8.93;;
13891;SDS011;7016;48.172;8.058;2023-09-12T01:19:42;14.75;;;8.25;;
13891;SDS011;7016;48.172;8.058;2023-09-12T01:25:38;13.27;;;8.23;;
13891;SDS011;7016;48.172;8.058;2023-09-12T01:27:53;16.52;;;8.75;;
13891;SDS011;7016;48.172;8.058;2023-09-12T01:30:23;17.98;;;8.43;;
13891;SDS011;7016;48.172;8.058;2023-09-12T01:32:53;11.23;;;8.13;;
13891;SDS011;7016;48.172;8.058;2023-09-12T01:35:19;18.08;;;8.38;;
13891;SDS011;7016;48.172;8.058;2023-09-12T01:37:45;14.38;;;8.18;;
13891;SDS011;7016;48.172;8.058;2023-09-12T01:40:10;12.13;;;9.23;;
13891;SDS011;7016;48.172;8.058;2023-09-12T01:42:38;15.45;;;8.43;;
13891;SDS011;7016;48.172;8.058;2023-09-12T01:45:09;12.00;;;8.07;;
13891;SDS011;7016;48.172;8.058;2023-09-12T01:47:37;15.85;;;7.97;;
13891;SDS011;7016;48.172;8.058;2023-09-12T01:50:05;10.20;;;7.85;;
13891;SDS011;7016;48.172;8.058;2023-09-12T01:52:33;13.93;;;8.50;;
13891;SDS011;7016;48.172;8.058;2023-09-12T01:55:00;13.63;;;8.68;;
13891;SDS011;7016;48.172;8.058;2023-09-12T01:57:27;15.43;;;8.68;;
13891;SDS011;7016;48.172;8.058;2023-09-12T01:59:53;17.58;;;8.82;;
13891;SDS011;7016;48.172;8.058;2023-09-12T02:02:19;14.48;;;8.00;;
13891;SDS011;7016;48.172;8.058;2023-09-12T02:05:07;16.73;;;8.75;;
13891;SDS011;7016;48.172;8.058;2023-09-12T02:07:41;15.07;;;8.18;;
13891;SDS011;7016;48.172;8.058;2023-09-12T02:10:07;17.55;;;8.80;;
13891;SDS011;7016;48.172;8.058;2023-09-12T02:12:34;16.67;;;9.10;;
13891;SDS011;7016;48.172;8.058;2023-09-12T02:15:00;18.10;;;8.27;;
13891;SDS011;7016;48.172;8.058;2023-09-12T02:17:26;17.00;;;8.50;;
13891;SDS011;7016;48.172;8.058;2023-09-12T02:19:52;15.80;;;8.65;;
13891;SDS011;7016;48.172;8.058;2023-09-12T02:22:17;13.63;;;8.10;;
13891;SDS011;7016;48.172;8.058;2023-09-12T02:24:43;16.52;;;8.65;;
13891;SDS011;7016;48.172;8.058;2023-09-12T02:27:08;14.88;;;8.10;;
13891;SDS011;7016;48.172;8.058;2023-09-12T02:29:34;16.10;;;8.88;;
13891;SDS011;7016;48.172;8.058;2023-09-12T02:32:00;16.63;;;9.07;;
13891;SDS011;7016;48.172;8.058;2023-09-12T02:34:26;12.50;;;8.27;;
13891;SDS011;7016;48.172;8.058;2023-09-12T02:36:51;13.40;;;8.60;;
13891;SDS011;7016;48.172;8.058;2023-09-12T02:39:18;16.50;;;9.25;;
13891;SDS011;7016;48.172;8.058;2023-09-12T02:41:43;14.73;;;8.48;;
13891;SDS011;7016;48.172;8.058;2023-09-12T02:44:09;13.98;;;8.80;;
13891;SDS011;7016;48.172;8.058;2023-09-12T02:46:36;18.17;;;8.32;;
13891;SDS011;7016;48.172;8.058;2023-09-12T02:49:02;14.68;;;8.15;;
13891;SDS011;7016;48.172;8.058;2023-09-12T02:51:28;14.80;;;9.27;;
13891;SDS011;7016;48.172;8.058;2023-09-12T02:53:53;14.52;;;8.98;;
13891;SDS011;7016;48.172;8.058;2023-09-12T02:56:19;16.70;;;8.82;;
13891;SDS011;7016;48.172;8.058;2023-09-12T02:58:45;15.05;;;8.07;;
13891;SDS011;7016;48.172;8.058;2023-09-12T03:01:18;17.10;;;8.07;;
13891;SDS011;7016;48.172;8.058;2023-09-12T03:03:48;16.08;;;8.82;;
13891;SDS011;7016;48.172;8.058;2023-09-12T03:06:14;12.88;;;8.20;;
13891;SDS011;7016;48.172;8.058;2023-09-12T03:08:41;17.58;;;9.02;;
13891;SDS011;7016;48.172;8.058;2023-09-12T03:11:08;18.58;;;8.70;;
13891;SDS011;7016;48.172;8.058;2023-09-12T03:13:34;18.90;;;8.77;;
13891;SDS011;7016;48.172;8.058;2023-09-12T03:16:01;16.80;;;8.93;;
13891;SDS011;7016;48.172;8.058;2023-09-12T03:18:27;12.65;;;7.60;;
13891;SDS011;7016;48.172;8.058;2023-09-12T03:20:52;19.42;;;9.13;;
13891;SDS011;7016;48.172;8.058;2023-09-12T03:23:21;15.93;;;9.02;;
13891;SDS011;7016;48.172;8.058;2023-09-12T03:25:47;13.82;;;8.85;;
13891;SDS011;7016;48.172;8.058;2023-09-12T03:28:13;14.93;;;9.20;;
13891;SDS011;7016;48.172;8.058;2023-09-12T03:30:38;19.48;;;8.88;;
13891;SDS011;7016;48.172;8.058;2023-09-12T03:33:04;13.65;;;8.77;;
13891;SDS011;7016;48.172;8.058;2023-09-12T03:35:34;12.90;;;8.38;;
13891;SDS011;7016;48.172;8.058;2023-09-12T03:38:00;17.13;;;9.30;;
13891;SDS011;7016;48.172;8.058;2023-09-12T03:40:27;12.70;;;8.63;;
13891;SDS011;7016;48.172;8.058;2023-09-12T03:42:55;16.23;;;8.68;;
13891;SDS011;7016;48.172;8.058;2023-09-12T03:45:21;14.60;;;9.18;;
13891;SDS011;7016;48.172;8.058;2023-09-12T03:47:47;14.13;;;8.60;;
13891;SDS011;7016;48.172;8.058;2023-09-12T03:50:13;17.02;;;8.88;;
13891;SDS011;7016;48.172;8.058;2023-09-12T03:52:39;12.73;;;9.07;;
13891;SDS011;7016;48.172;8.058;2023-09-12T03:55:04;16.63;;;9.77;;
13891;SDS011;7016;48.172;8.058;2023-09-12T03:57:30;14.75;;;8.40;;
13891;SDS011;7016;48.172;8.058;2023-09-12T03:59:56;13.85;;;8.95;;
13891;SDS011;7016;48.172;8.058;2023-09-12T04:02:22;15.50;;;9.32;;
13891;SDS011;7016;48.172;8.058;2023-09-12T04:04:48;14.00;;;9.07;;
13891;SDS011;7016;48.172;8.058;2023-09-12T04:07:14;16.58;;;8.90;;
13891;SDS011;7016;48.172;8.058;2023-09-12T04:09:40;16.73;;;9.30;;
13891;SDS011;7016;48.172;8.058;2023-09-12T04:12:05;13.77;;;8.50;;
13891;SDS011;7016;48.172;8.058;2023-09-12T04:14:33;12.73;;;8.63;;
13891;SDS011;7016;48.172;8.058;2023-09-12T04:16:59;17.40;;;10.07;;
13891;SDS011;7016;48.172;8.058;2023-09-12T04:19:25;16.08;;;8.52;;
13891;SDS011;7016;48.172;8.058;2023-09-12T04:21:51;13.30;;;8.90;;
13891;SDS011;7016;48.172;8.058;2023-09-12T04:24:16;11.07;;;8.52;;
13891;SDS011;7016;48.172;8.058;2023-09-12T04:26:42;11.50;;;8.55;;
13891;SDS011;7016;48.172;8.058;2023-09-12T04:29:09;11.63;;;8.38;;
13891;SDS011;7016;48.172;8.058;2023-09-12T04:31:35;18.25;;;9.57;;
13891;SDS011;7016;48.172;8.058;2023-09-12T04:34:02;18.33;;;9.35;;
13891;SDS011;7016;48.172;8.058;2023-09-12T04:36:27;11.90;;;9.18;;
13891;SDS011;7016;48.172;8.058;2023-09-12T04:38:53;16.05;;;8.98;;
13891;SDS011;7016;48.172;8.058;2023-09-12T04:41:19;11.80;;;8.88;;
13891;SDS011;7016;48.172;8.058;2023-09-12T04:43:45;13.40;;;9.00;;
13891;SDS011;7016;48.172;8.058;2023-09-12T04:46:11;14.07;;;9.20;;
13891;SDS011;7016;48.172;8.058;2023-09-12T04:48:37;15.13;;;9.35;;
13891;SDS011;7016;48.172;8.058;2023-09-12T04:51:03;15.95;;;8.77;;
13891;SDS011;7016;48.172;8.058;2023-09-12T04:53:29;14.65;;;8.63;;
13891;SDS011;7016;48.172;8.058;2023-09-12T04:55:59;16.85;;;9.80;;
13891;SDS011;7016;48.172;8.058;2023-09-12T04:58:26;18.08;;;9.88;;
13891;SDS011;7016;48.172;8.058;2023-09-12T05:00:51;17.88;;;9.43;;
13891;SDS011;7016;48.172;8.058;2023-09-12T05:03:19;13.10;;;8.93;;
13891;SDS011;7016;48.172;8.058;2023-09-12T05:05:47;15.57;;;10.05;;
13891;SDS011;7016;48.172;8.058;2023-09-12T05:08:15;14.05;;;9.77;;
13891;SDS011;7016;48.172;8.058;2023-09-12T05:10:41;16.40;;;9.60;;
13891;SDS011;7016;48.172;8.058;2023-09-12T05:13:08;16.10;;;9.32;;
13891;SDS011;7016;48.172;8.058;2023-09-12T05:15:34;13.43;;;8.88;;
13891;SDS011;7016;48.172;8.058;2023-09-12T05:18:02;14.45;;;9.48;;
13891;SDS011;7016;48.172;8.058;2023-09-12T05:20:29;16.55;;;9.50;;
13891;SDS011;7016;48.172;8.058;2023-09-12T05:22:55;18.17;;;9.95;;
13891;SDS011;7016;48.172;8.058;2023-09-12T05:25:20;18.70;;;10.27;;
13891;SDS011;7016;48.172;8.058;2023-09-12T05:27:46;18.45;;;10.35;;
13891;SDS011;7016;48.172;8.058;2023-09-12T05:30:12;17.90;;;10.07;;
13891;SDS011;7016;48.172;8.058;2023-09-12T05:32:37;15.20;;;9.57;;
13891;SDS011;7016;48.172;8.058;2023-09-12T05:35:03;17.08;;;10.38;;
13891;SDS011;7016;48.172;8.058;2023-09-12T05:37:29;18.23;;;10.18;;
13891;SDS011;7016;48.172;8.058;2023-09-12T05:39:55;13.20;;;9.27;;
13891;SDS011;7016;48.172;8.058;2023-09-12T05:42:21;15.15;;;8.70;;
13891;SDS011;7016;48.172;8.058;2023-09-12T05:44:48;14.65;;;9.98;;
13891;SDS011;7016;48.172;8.058;2023-09-12T05:47:14;12.38;;;8.80;;
13891;SDS011;7016;48.172;8.058;2023-09-12T05:49:40;15.57;;;9.10;;
13891;SDS011;7016;48.172;8.058;2023-09-12T05:52:06;13.85;;;8.07;;
13891;SDS011;7016;48.172;8.058;2023-09-12T05:54:32;12.95;;;9.07;;
13891;SDS011;7016;48.172;8.058;2023-09-12T05:56:57;15.57;;;8.98;;
13891;SDS011;7016;48.172;8.058;2023-09-12T05:59:23;16.58;;;9.57;;
13891;SDS011;7016;48.172;8.058;2023-09-12T06:01:49;18.13;;;8.55;;
13891;SDS011;7016;48.172;8.058;2023-09-12T06:04:14;10.85;;;8.57;;
13891;SDS011;7016;48.172;8.058;2023-09-12T06:06:40;14.10;;;7.80;;
13891;SDS011;7016;48.172;8.058;2023-09-12T06:09:06;13.20;;;8.52;;
13891;SDS011;7016;48.172;8.058;2023-09-12T06:11:33;14.50;;;9.07;;
13891;SDS011;7016;48.172;8.058;2023-09-12T06:13:59;14.45;;;8.00;;
13891;SDS011;7016;48.172;8.058;2023-09-12T06:16:25;13.85;;;9.35;;
13891;SDS011;7016;48.172;8.058;2023-09-12T06:18:51;15.38;;;8.73;;
13891;SDS011;7016;48.172;8.058;2023-09-12T06:21:18;15.15;;;10.30;;
13891;SDS011;7016;48.172;8.058;2023-09-12T06:23:46;16.92;;;9.65;;
13891;SDS011;7016;48.172;8.058;2023-09-12T06:26:30;14.23;;;9.20;;
13891;SDS011;7016;48.172;8.058;2023-09-12T06:28:56;14.45;;;9.07;;
13891;SDS011;7016;48.172;8.058;2023-09-12T06:31:22;14.73;;;9.75;;
13891;SDS011;7016;48.172;8.058;2023-09-12T06:33:48;17.67;;;10.20;;
13891;SDS011;7016;48.172;8.058;2023-09-12T06:36:13;12.32;;;8.30;;
13891;SDS011;7016;48.172;8.058;2023-09-12T06:38:39;12.32;;;8.93;;
13891;SDS011;7016;48.172;8.058;2023-09-12T06:41:04;12.73;;;8.07;;
13891;SDS011;7016;48.172;8.058;2023-09-12T06:43:30;10.13;;;7.90;;
13891;SDS011;7016;48.172;8.058;2023-09-12T06:45:56;13.45;;;9.43;;
13891;SDS011;7016;48.172;8.058;2023-09-12T06:48:21;12.50;;;9.23;;
13891;SDS011;7016;48.172;8.058;2023-09-12T06:50:47;13.93;;;9.23;;
13891;SDS011;7016;48.172;8.058;2023-09-12T06:53:13;13.20;;;9.75;;
13891;SDS011;7016;48.172;8.058;2023-09-12T06:55:38;17.80;;;9.90;;
13891;SDS011;7016;48.172;8.058;2023-09-12T06:58:04;15.57;;;9.90;;
13891;SDS011;7016;48.172;8.058;2023-09-12T07:00:30;13.32;;;10.02;;
13891;SDS011;7016;48.172;8.058;2023-09-12T07:02:56;13.55;;;9.93;;
13891;SDS011;7016;48.172;8.058;2023-09-12T07:05:22;13.75;;;10.50;;
13891;SDS011;7016;48.172;8.058;2023-09-12T07:07:47;14.32;;;9.57;;
13891;SDS011;7016;48.172;8.058;2023-09-12T07:10:13;15.43;;;10.07;;
13891;SDS011;7016;48.172;8.058;2023-09-12T07:12:38;14.98;;;9.88;;
13891;SDS011;7016;48.172;8.058;2023-09-12T07:15:04;16.42;;;10.20;;
13891;SDS011;7016;48.172;8.058;2023-09-12T07:17:30;12.35;;;9.80;;
13891;SDS011;7016;48.172;8.058;2023-09-12T07:19:57;13.57;;;9.90;;
13891;SDS011;7016;48.172;8.058;2023-09-12T07:22:23;14.80;;;10.27;;
13891;SDS011;7016;48.172;8.058;2023-09-12T07:24:49;15.85;;;10.07;;
13891;SDS011;7016;48.172;8.058;2023-09-12T07:27:14;17.33;;;10.82;;
13891;SDS011;7016;48.172;8.058;2023-09-12T07:29:40;12.63;;;9.95;;
13891;SDS011;7016;48.172;8.058;2023-09-12T07:32:05;13.00;;;9.90;;
13891;SDS011;7016;48.172;8.058;2023-09-12T07:34:31;18.88;;;10.30;;
13891;SDS011;7016;48.172;8.058;2023-09-12T07:36:58;15.13;;;10.05;;
13891;SDS011;7016;48.172;8.058;2023-09-12T07:39:23;15.82;;;9.63;;
13891;SDS011;7016;48.172;8.058;2023-09-12T07:41:49;16.45;;;10.75;;
13891;SDS011;7016;48.172;8.058;2023-09-12T07:44:15;18.70;;;10.65;;
13891;SDS011;7016;48.172;8.058;2023-09-12T07:46:41;18.90;;;10.70;;
13891;SDS011;7016;48.172;8.058;2023-09-12T07:49:08;17.77;;;11.20;;
13891;SDS011;7016;48.172;8.058;2023-09-12T07:51:34;18.83;;;11.15;;
13891;SDS011;7016;48.172;8.058;2023-09-12T07:54:00;17.92;;;12.52;;
13891;SDS011;7016;48.172;8.058;2023-09-12T07:56:26;16.70;;;11.80;;
13891;SDS011;7016;48.172;8.058;2023-09-12T07:58:52;15.63;;;12.13;;
13891;SDS011;7016;48.172;8.058;2023-09-12T08:01:18;16.70;;;11.55;;
13891;SDS011;7016;48.172;8.058;2023-09-12T08:03:44;19.67;;;12.80;;
13891;SDS011;7016;48.172;8.058;2023-09-12T08:06:09;12.13;;;9.93;;
13891;SDS011;7016;48.172;8.058;2023-09-12T08:08:35;16.83;;;10.52;;
13891;SDS011;7016;48.172;8.058;2023-09-12T08:11:01;16.35;;;11.60;;
13891;SDS011;7016;48.172;8.058;2023-09-12T08:13:27;17.25;;;10.88;;
13891;SDS011;7016;48.172;8.058;2023-09-12T08:15:54;17.77;;;11.57;;
13891;SDS011;7016;48.172;8.058;2023-09-12T08:18:19;18.85;;;10.55;;
13891;SDS011;7016;48.172;8.058;2023-09-12T08:20:45;15.32;;;11.32;;
13891;SDS011;7016;48.172;8.058;2023-09-12T08:23:11;16.48;;;10.95;;
13891;SDS011;7016;48.172;8.058;2023-09-12T08:25:37;15.82;;;11.00;;
13891;SDS011;7016;48.172;8.058;2023-09-12T08:28:02;19.73;;;12.10;;
13891;SDS011;7016;48.172;8.058;2023-09-12T08:30:28;21.77;;;13.15;;
13891;SDS011;7016;48.172;8.058;2023-09-12T08:32:54;24.25;;;12.82;;
13891;SDS011;7016;48.172;8.058;2023-09-12T08:35:21;24.67;;;13.10;;
13891;SDS011;7016;48.172;8.058;2023-09-12T08:37:46;20.63;;;12.57;;
13891;SDS011;7016;48.172;8.058;2023-09-12T08:40:13;24.48;;;14.07;;
13891;SDS011;7016;48.172;8.058;2023-09-12T08:42:40;20.27;;;13.20;;
13891;SDS011;7016;48.172;8.058;2023-09-12T08:45:16;22.85;;;13.55;;
13891;SDS011;7016;48.172;8.058;2023-09-12T08:47:44;24.40;;;15.02;;
13891;SDS011;7016;48.172;8.058;2023-09-12T08:50:11;21.58;;;13.95;;
13891;SDS011;7016;48.172;8.058;2023-09-12T08:52:39;24.40;;;13.35;;
13891;SDS011;7016;48.172;8.058;2023-09-12T08:55:07;21.90;;;12.50;;
13891;SDS011;7016;48.172;8.058;2023-09-12T08:57:35;26.15;;;14.25;;
13891;SDS011;7016;48.172;8.058;2023-09-12T09:00:03;25.20;;;13.90;;
13891;SDS011;7016;48.172;8.058;2023-09-12T09:02:32;28.42;;;13.77;;
13891;SDS011;7016;48.172;8.058;2023-09-12T09:04:59;25.85;;;12.88;;
13891;SDS011;7016;48.172;8.058;2023-09-12T09:07:27;21.42;;;12.30;;
13891;SDS011;7016;48.172;8.058;2023-09-12T09:09:54;20.80;;;12.07;;
13891;SDS011;7016;48.172;8.058;2023-09-12T09:12:21;20.05;;;11.30;;
13891;SDS011;7016;48.172;8.058;2023-09-12T09:14:46;21.58;;;11.68;;
13891;SDS011;7016;48.172;8.058;2023-09-12T09:17:12;19.42;;;10.93;;
13891;SDS011;7016;48.172;8.058;2023-09-12T09:19:41;26.13;;;11.98;;
13891;SDS011;7016;48.172;8.058;2023-09-12T09:22:07;19.50;;;10.90;;
13891;SDS011;7016;48.172;8.058;2023-09-12T09:24:33;16.33;;;9.90;;
13891;SDS011;7016;48.172;8.058;2023-09-12T09:26:59;17.85;;;10.77;;
13891;SDS011;7016;48.172;8.058;2023-09-12T09:29:26;16.10;;;9.73;;
13891;SDS011;7016;48.172;8.058;2023-09-12T09:31:58;16.77;;;9.73;;
13891;SDS011;7016;48.172;8.058;2023-09-12T09:34:26;13.23;;;8.43;;
13891;SDS011;7016;48.172;8.058;2023-09-12T09:36:55;13.18;;;8.80;;
13891;SDS011;7016;48.172;8.058;2023-09-12T09:39:25;12.52;;;8.80;;
13891;SDS011;7016;48.172;8.058;2023-09-12T09:41:54;12.77;;;8.77;;
13891;SDS011;7016;48.172;8.058;2023-09-12T09:44:25;10.88;;;7.90;;
13891;SDS011;7016;48.172;8.058;2023-09-12T09:46:55;13.07;;;8.20;;
13891;SDS011;7016;48.172;8.058;2023-09-12T09:49:27;10.55;;;7.50;;
13891;SDS011;7016;48.172;8.058;2023-09-12T09:51:56;9.90;;;6.78;;
13891;SDS011;7016;48.172;8.058;2023-09-12T09:54:24;11.88;;;6.15;;
13891;SDS011;7016;48.172;8.058;2023-09-12T09:56:57;9.65;;;5.88;;
13891;SDS011;7016;48.172;8.058;2023-09-12T09:59:26;8.55;;;5.53;;
13891;SDS011;7016;48.172;8.058;2023-09-12T10:01:56;8.45;;;5.68;;
13891;SDS011;7016;48.172;8.058;2023-09-12T10:04:23;10.63;;;5.53;;
13891;SDS011;7016;48.172;8.058;2023-09-12T10:06:51;7.75;;;5.38;;
13891;SDS011;7016;48.172;8.058;2023-09-12T10:09:20;10.57;;;5.72;;
13891;SDS011;7016;48.172;8.058;2023-09-12T10:11:48;10.88;;;5.80;;
13891;SDS011;7016;48.172;8.058;2023-09-12T10:14:17;13.73;;;5.75;;
13891;SDS011;7016;48.172;8.058;2023-09-12T10:16:45;8.38;;;5.20;;
13891;SDS011;7016;48.172;8.058;2023-09-12T10:19:15;8.65;;;5.38;;
13891;SDS011;7016;48.172;8.058;2023-09-12T10:24:23;10.85;;;5.75;;
13891;SDS011;7016;48.172;8.058;2023-09-12T10:26:50;7.03;;;4.90;;
13891;SDS011;7016;48.172;8.058;2023-09-12T10:29:16;10.07;;;5.20;;
13891;SDS011;7016;48.172;8.058;2023-09-12T10:31:42;10.77;;;5.70;;
13891;SDS011;7016;48.172;8.058;2023-09-12T10:34:08;9.32;;;4.90;;
13891;SDS011;7016;48.172;8.058;2023-09-12T10:36:38;7.97;;;5.10;;
13891;SDS011;7016;48.172;8.058;2023-09-12T10:39:05;10.90;;;5.38;;
13891;SDS011;7016;48.172;8.058;2023-09-12T10:41:32;9.02;;;5.50;;
13891;SDS011;7016;48.172;8.058;2023-09-12T10:44:01;7.93;;;5.20;;
13891;SDS011;7016;48.172;8.058;2023-09-12T10:46:35;6.22;;;4.97;;
13891;SDS011;7016;48.172;8.058;2023-09-12T10:49:03;11.23;;;5.50;;
13891;SDS011;7016;48.172;8.058;2023-09-12T10:51:31;12.80;;;5.50;;
13891;SDS011;7016;48.172;8.058;2023-09-12T10:53:57;7.32;;;5.18;;
13891;SDS011;7016;48.172;8.058;2023-09-12T10:56:22;12.30;;;5.25;;
13891;SDS011;7016;48.172;8.058;2023-09-12T11:01:29;8.02;;;4.78;;
13891;SDS011;7016;48.172;8.058;2023-09-12T11:03:56;9.02;;;4.63;;
13891;SDS011;7016;48.172;8.058;2023-09-12T11:06:22;7.30;;;5.20;;
13891;SDS011;7016;48.172;8.058;2023-09-12T11:09:36;6.85;;;5.10;;
13891;SDS011;7016;48.172;8.058;2023-09-12T11:11:44;12.73;;;5.43;;
13891;SDS011;7016;48.172;8.058;2023-09-12T11:14:14;8.75;;;5.20;;
13891;SDS011;7016;48.172;8.058;2023-09-12T11:16:41;11.43;;;5.40;;
13891;SDS011;7016;48.172;8.058;2023-09-12T11:19:12;11.48;;;5.07;;
13891;SDS011;7016;48.172;8.058;2023-09-12T11:21:43;10.65;;;5.75;;
13891;SDS011;7016;48.172;8.058;2023-09-12T11:24:13;14.10;;;5.65;;
13891;SDS011;7016;48.172;8.058;2023-09-12T11:29:36;8.93;;;4.97;;
13891;SDS011;7016;48.172;8.058;2023-09-12T11:32:04;9.27;;;4.72;;
13891;SDS011;7016;48.172;8.058;2023-09-12T11:34:37;7.72;;;5.07;;
13891;SDS011;7016;48.172;8.058;2023-09-12T11:37:05;9.73;;;5.18;;
13891;SDS011;7016;48.172;8.058;2023-09-12T11:39:38;7.35;;;5.25;;
13891;SDS011;7016;48.172;8.058;2023-09-12T11:42:04;10.68;;;4.95;;
13891;SDS011;7016;48.172;8.058;2023-09-12T11:44:35;8.32;;;5.35;;
13891;SDS011;7016;48.172;8.058;2023-09-12T11:47:01;7.53;;;4.95;;
13891;SDS011;7016;48.172;8.058;2023-09-12T11:49:38;10.40;;;5.10;;
13891;SDS011;7016;48.172;8.058;2023-09-12T11:52:11;7.53;;;4.75;;
13891;SDS011;7016;48.172;8.058;2023-09-12T11:54:41;7.60;;;5.20;;
13891;SDS011;7016;48.172;8.058;2023-09-12T11:57:10;13.52;;;5.40;;
13891;SDS011;7016;48.172;8.058;2023-09-12T11:59:40;7.47;;;5.07;;
13891;SDS011;7016;48.172;8.058;2023-09-12T12:02:13;9.02;;;5.20;;
13891;SDS011;7016;48.172;8.058;2023-09-12T12:04:40;10.48;;;5.13;;
13891;SDS011;7016;48.172;8.058;2023-09-12T12:07:06;10.18;;;4.90;;
13891;SDS011;7016;48.172;8.058;2023-09-12T12:09:33;7.32;;;4.97;;
13891;SDS011;7016;48.172;8.058;2023-09-12T12:12:09;6.75;;;4.57;;
13891;SDS011;7016;48.172;8.058;2023-09-12T12:14:35;7.72;;;4.40;;
13891;SDS011;7016;48.172;8.058;2023-09-12T12:17:08;7.30;;;3.97;;
13891;SDS011;7016;48.172;8.058;2023-09-12T12:19:35;8.37;;;4.17;;
13891;SDS011;7016;48.172;8.058;2023-09-12T12:22:04;5.93;;;4.63;;
13891;SDS011;7016;48.172;8.058;2023-09-12T12:24:41;8.45;;;4.32;;
13891;SDS011;7016;48.172;8.058;2023-09-12T12:27:09;6.80;;;4.10;;
13891;SDS011;7016;48.172;8.058;2023-09-12T12:29:36;5.78;;;4.80;;
13891;SDS011;7016;48.172;8.058;2023-09-12T12:32:04;8.10;;;4.43;;
13891;SDS011;7016;48.172;8.058;2023-09-12T12:34:31;7.25;;;3.95;;
13891;SDS011;7016;48.172;8.058;2023-09-12T12:36:57;7.15;;;4.18;;
13891;SDS011;7016;48.172;8.058;2023-09-12T12:39:23;6.53;;;4.43;;
13891;SDS011;7016;48.172;8.058;2023-09-12T12:41:51;4.88;;;4.25;;
13891;SDS011;7016;48.172;8.058;2023-09-12T12:44:18;6.95;;;4.10;;
13891;SDS011;7016;48.172;8.058;2023-09-12T12:46:48;7.75;;;4.05;;
13891;SDS011;7016;48.172;8.058;2023-09-12T12:49:15;7.95;;;4.60;;
13891;SDS011;7016;48.172;8.058;2023-09-12T12:51:41;8.93;;;4.47;;
13891;SDS011;7016;48.172;8.058;2023-09-12T12:54:07;4.30;;;3.90;;
13891;SDS011;7016;48.172;8.058;2023-09-12T12:56:33;6.65;;;4.00;;
13891;SDS011;7016;48.172;8.058;2023-09-12T12:59:00;7.75;;;4.20;;
13891;SDS011;7016;48.172;8.058;2023-09-12T13:01:32;6.38;;;4.05;;
13891;SDS011;7016;48.172;8.058;2023-09-12T13:04:00;9.05;;;4.50;;
13891;SDS011;7016;48.172;8.058;2023-09-12T13:06:25;7.35;;;4.80;;
13891;SDS011;7016;48.172;8.058;2023-09-12T13:08:53;7.97;;;4.10;;
13891;SDS011;7016;48.172;8.058;2023-09-12T13:11:18;7.97;;;4.43;;
13891;SDS011;7016;48.172;8.058;2023-09-12T13:13:44;6.82;;;4.38;;
13891;SDS011;7016;48.172;8.058;2023-09-12T13:16:12;7.57;;;4.45;;
13891;SDS011;7016;48.172;8.058;2023-09-12T13:18:39;7.10;;;4.15;;
13891;SDS011;7016;48.172;8.058;2023-09-12T13:21:05;7.00;;;4.00;;
13891;SDS011;7016;48.172;8.058;2023-09-12T13:23:35;9.25;;;4.30;;
13891;SDS011;7016;48.172;8.058;2023-09-12T13:26:02;6.45;;;4.38;;
13891;SDS011;7016;48.172;8.058;2023-09-12T13:28:28;6.93;;;4.38;;
13891;SDS011;7016;48.172;8.058;2023-09-12T13:30:55;5.43;;;4.63;;
13891;SDS011;7016;48.172;8.058;2023-09-12T13:33:22;8.40;;;4.53;;
13891;SDS011;7016;48.172;8.058;2023-09-12T13:35:48;8.05;;;4.30;;
13891;SDS011;7016;48.172;8.058;2023-09-12T13:38:15;9.45;;;4.57;;
13891;SDS011;7016;48.172;8.058;2023-09-12T13:40:43;8.05;;;4.20;;
13891;SDS011;7016;48.172;8.058;2023-09-12T13:43:09;13.60;;;4.78;;
13891;SDS011;7016;48.172;8.058;2023-09-12T13:45:35;10.35;;;4.40;;
13891;SDS011;7016;48.172;8.058;2023-09-12T13:48:04;5.85;;;4.35;;
13891;SDS011;7016;48.172;8.058;2023-09-12T13:50:31;5.57;;;4.68;;
13891;SDS011;7016;48.172;8.058;2023-09-12T13:52:57;14.27;;;4.85;;
13891;SDS011;7016;48.172;8.058;2023-09-12T13:55:32;8.10;;;4.57;;
13891;SDS011;7016;48.172;8.058;2023-09-12T13:58:01;8.10;;;4.60;;
13891;SDS011;7016;48.172;8.058;2023-09-12T14:00:28;6.38;;;4.60;;
13891;SDS011;7016;48.172;8.058;2023-09-12T14:02:58;5.80;;;4.50;;
13891;SDS011;7016;48.172;8.058;2023-09-12T14:05:24;8.48;;;4.85;;
13891;SDS011;7016;48.172;8.058;2023-09-12T14:07:50;8.43;;;4.38;;
13891;SDS011;7016;48.172;8.058;2023-09-12T14:10:16;6.63;;;4.63;;
13891;SDS011;7016;48.172;8.058;2023-09-12T14:12:42;7.75;;;4.35;;
13891;SDS011;7016;48.172;8.058;2023-09-12T14:15:09;6.38;;;4.50;;
13891;SDS011;7016;48.172;8.058;2023-09-12T14:17:40;7.57;;;4.15;;
13891;SDS011;7016;48.172;8.058;2023-09-12T14:20:06;5.57;;;4.40;;
13891;SDS011;7016;48.172;8.058;2023-09-12T14:22:33;5.22;;;4.10;;
13891;SDS011;7016;48.172;8.058;2023-09-12T14:24:59;6.70;;;4.07;;
13891;SDS011;7016;48.172;8.058;2023-09-12T14:27:25;10.27;;;4.72;;
13891;SDS011;7016;48.172;8.058;2023-09-12T14:29:51;11.63;;;7.70;;
13891;SDS011;7016;48.172;8.058;2023-09-12T14:32:16;13.15;;;7.60;;
13891;SDS011;7016;48.172;8.058;2023-09-12T14:34:42;8.25;;;5.45;;
13891;SDS011;7016;48.172;8.058;2023-09-12T14:37:10;6.82;;;3.70;;
13891;SDS011;7016;48.172;8.058;2023-09-12T14:39:36;8.70;;;3.60;;
13891;SDS011;7016;48.172;8.058;2023-09-12T14:42:02;5.07;;;3.33;;
13891;SDS011;7016;48.172;8.058;2023-09-12T14:44:33;7.20;;;4.38;;
13891;SDS011;7016;48.172;8.058;2023-09-12T14:46:58;13.93;;;3.95;;
13891;SDS011;7016;48.172;8.058;2023-09-12T14:49:24;6.38;;;3.22;;
13891;SDS011;7016;48.172;8.058;2023-09-12T14:51:50;5.72;;;3.20;;
13891;SDS011;7016;48.172;8.058;2023-09-12T14:54:17;6.88;;;3.40;;
13891;SDS011;7016;48.172;8.058;2023-09-12T14:56:50;6.72;;;3.05;;
13891;SDS011;7016;48.172;8.058;2023-09-12T14:59:16;6.20;;;3.30;;